Time;durP1;ratioP1;P1;durP2;ratioP2;P2;SDS_P1;SDS_P2;PMS_P1;PMS_P2;Temp;Humidity;BMP_temperature;BMP_pressure;BME280_temperature;BME280_humidity;BME280_pressure;Samples;Min_cycle;Max_cycle;Signal;HPM_P1;HPM_P2
2022/12/05 00:01:23;;;;;;;1999.90;685.75;;;7.50;1.00;;;;;;5071720;28;20067;-81
2022/12/05 00:03:51;;;;;;;1999.90;686.25;;;7.50;1.00;;;;;;5056117;28;20058;-80
2022/12/05 00:06:17;;;;;;;1999.90;999.90;;;8.50;1.00;;;;;;5074089;28;20045;-81
2022/12/05 00:08:43;;;;;;;1999.90;999.90;;;6.80;1.00;;;;;;5073871;28;20086;-81
2022/12/05 00:11:17;;;;;;;1999.90;999.90;;;6.80;1.00;;;;;;5074973;28;20558;-81
2022/12/05 00:13:43;;;;;;;1999.90;999.90;;;6.80;1.00;;;;;;5073478;28;20503;-81
2022/12/05 00:16:11;;;;;;;1999.90;999.90;;;8.20;1.00;;;;;;5055195;28;20039;-80
2022/12/05 00:18:38;;;;;;;1999.90;908.25;;;6.00;1.00;;;;;;5073576;28;20036;-81
2022/12/05 00:21:04;;;;;;;1999.90;999.90;;;8.10;1.00;;;;;;5055821;28;20103;-81
2022/12/05 00:23:30;;;;;;;1999.90;727.47;;;6.80;1.00;;;;;;5055999;28;20488;-81
2022/12/05 00:25:56;;;;;;;1999.90;999.90;;;7.10;1.00;;;;;;5073939;28;20080;-83
2022/12/05 00:28:21;;;;;;;1999.90;697.65;;;6.80;1.00;;;;;;5073405;28;20070;-80
2022/12/05 00:30:47;;;;;;;1999.90;999.90;;;6.80;1.00;;;;;;5056491;28;20405;-80
2022/12/05 00:33:13;;;;;;;1999.90;648.22;;;6.80;1.00;;;;;;5074991;28;20130;-81
2022/12/05 00:35:38;;;;;;;1999.90;999.90;;;7.10;1.00;;;;;;5046685;28;20099;-81
2022/12/05 00:38:04;;;;;;;1999.90;999.90;;;;;;;;;;5053372;28;20087;-85
2022/12/05 00:40:30;;;;;;;1999.90;999.90;;;6.80;1.00;;;;;;5074685;28;20080;-80
2022/12/05 00:42:56;;;;;;;1999.90;999.90;;;7.00;1.00;;;;;;5073905;28;20084;-83
2022/12/05 00:45:21;;;;;;;1999.90;999.90;;;6.80;1.00;;;;;;5074595;28;20045;-80
2022/12/05 00:47:47;;;;;;;1999.90;999.90;;;8.50;1.00;;;;;;5056177;28;20056;-80
2022/12/05 00:50:13;;;;;;;1999.90;999.90;;;8.50;1.00;;;;;;5072805;28;20079;-81
2022/12/05 00:52:38;;;;;;;1999.90;999.90;;;8.40;1.00;;;;;;5072957;28;20063;-80
2022/12/05 00:55:04;;;;;;;1999.90;999.90;;;7.70;1.00;;;;;;5056242;28;20586;-80
2022/12/05 00:57:31;;;;;;;1999.90;999.90;;;6.90;1.00;;;;;;5056447;28;20043;-80
2022/12/05 00:59:56;;;;;;;1999.90;999.90;;;6.90;1.00;;;;;;5054816;28;20045;-80
2022/12/05 01:02:22;;;;;;;1999.90;655.65;;;5.30;1.00;;;;;;5072202;28;20056;-80
2022/12/05 01:04:48;;;;;;;1999.90;999.90;;;6.90;1.00;;;;;;5071565;28;20052;-80
2022/12/05 01:07:13;;;;;;;1999.90;999.90;;;8.30;1.00;;;;;;5053659;28;20488;-81
2022/12/05 01:09:39;;;;;;;1999.90;999.90;;;7.00;1.00;;;;;;5071230;28;20409;-80
2022/12/05 01:12:05;;;;;;;1999.90;999.90;;;8.50;1.00;;;;;;5071056;28;20083;-80
2022/12/05 01:14:31;;;;;;;1999.90;999.90;;;6.60;1.00;;;;;;5069963;28;20036;-80
2022/12/05 01:16:56;;;;;;;1999.90;724.67;;;6.70;1.00;;;;;;5073433;28;20044;-79
2022/12/05 01:19:28;;;;;;;1999.90;694.53;;;7.70;1.00;;;;;;5074641;28;20041;-79
2022/12/05 01:21:54;;;;;;;1999.90;699.95;;;6.80;1.00;;;;;;5072951;28;20067;-78
2022/12/05 01:24:21;;;;;;;1999.90;758.83;;;7.10;1.00;;;;;;5074095;28;20048;-80
2022/12/05 01:26:47;;;;;;;1999.90;881.77;;;7.20;1.00;;;;;;5072895;28;20485;-86
2022/12/05 01:29:16;;;;;;;1999.90;999.90;;;7.10;1.00;;;;;;5072822;28;20044;-78
2022/12/05 01:31:42;;;;;;;1999.90;999.90;;;7.10;1.00;;;;;;5053376;28;20079;-78
2022/12/05 01:34:12;;;;;;;1987.63;335.58;;;7.10;1.00;;;;;;5052679;28;20555;-79
2022/12/05 01:36:38;;;;;;;1999.90;999.90;;;7.10;1.00;;;;;;5072525;28;20098;-79
2022/12/05 01:39:05;;;;;;;1999.90;999.90;;;7.10;1.00;;;;;;5070547;28;20041;-79
2022/12/05 01:41:34;;;;;;;1999.90;696.60;;;7.20;1.00;;;;;;5071344;28;20048;-79
2022/12/05 01:44:04;;;;;;;1999.90;999.90;;;7.20;1.00;;;;;;5054148;28;20075;-79
2022/12/05 01:46:36;;;;;;;1999.90;718.45;;;7.20;1.00;;;;;;5072347;28;20047;-79
2022/12/05 01:49:27;;;;;;;1999.90;720.22;;;7.20;1.00;;;;;;5051948;28;20044;-79
2022/12/05 01:52:00;;;;;;;1999.90;590.05;;;7.50;1.00;;;;;;5063629;28;20128;-79
2022/12/05 01:54:27;;;;;;;1999.90;717.28;;;7.20;1.00;;;;;;5037617;28;20048;-79
2022/12/05 01:56:58;;;;;;;1999.90;744.25;;;7.20;1.00;;;;;;5036998;28;20103;-79
2022/12/05 01:59:28;;;;;;;1999.90;999.90;;;7.20;1.00;;;;;;5054289;28;20102;-79
2022/12/05 02:01:54;;;;;;;1999.90;999.90;;;7.70;1.00;;;;;;5067352;28;20040;-80
2022/12/05 02:04:20;;;;;;;1999.90;574.53;;;8.40;1.00;;;;;;5071625;28;20512;-80
2022/12/05 02:06:46;;;;;;;1999.90;545.72;;;7.20;1.00;;;;;;5070856;28;20387;-82
2022/12/05 02:09:12;;;;;;;1999.90;569.83;;;7.20;1.00;;;;;;5038369;28;20056;-80
2022/12/05 02:11:49;;;;;;;1999.90;999.90;;;7.20;3.20;;;;;;5069736;28;20052;-80
2022/12/05 02:14:50;;;;;;;1999.90;999.90;;;7.20;5.10;;;;;;5053471;28;20440;-80
2022/12/05 02:17:28;;;;;;;1999.90;679.55;;;7.20;22.40;;;;;;5062710;28;20091;-81
2022/12/05 02:20:18;;;;;;;1999.90;502.58;;;7.20;45.30;;;;;;5052889;28;20087;-79
2022/12/05 02:23:02;;;;;;;1999.90;714.22;;;7.20;69.80;;;;;;5047832;28;20049;-79
2022/12/05 02:26:05;;;;;;;1999.90;738.35;;;7.30;74.00;;;;;;5036818;28;20090;-78
2022/12/05 02:28:42;;;;;;;1999.90;689.90;;;7.20;85.40;;;;;;5071744;28;20118;-80
2022/12/05 02:31:46;;;;;;;1999.90;675.63;;;7.60;93.40;;;;;;5052819;28;20044;-79
2022/12/05 02:34:33;;;;;;;1999.90;667.72;;;7.00;91.70;;;;;;5067481;28;20453;-82
2022/12/05 02:37:16;;;;;;;1999.90;633.97;;;7.20;91.50;;;;;;5050406;28;20610;-79
2022/12/05 02:40:07;;;;;;;1999.90;605.45;;;7.20;98.20;;;;;;5070295;28;20515;-80
2022/12/05 02:42:55;;;;;;;1999.90;498.85;;;7.20;99.90;;;;;;5052157;28;20101;-80
2022/12/05 02:45:24;;;;;;;1999.90;509.63;;;7.20;99.90;;;;;;5070799;28;20123;-79
2022/12/05 02:47:52;;;;;;;1999.90;999.90;;;7.80;99.90;;;;;;5071047;28;20515;-79
2022/12/05 02:50:23;;;;;;;1999.90;999.90;;;7.50;99.90;;;;;;5070168;28;20057;-79
2022/12/05 02:52:52;;;;;;;1999.90;630.65;;;7.20;99.90;;;;;;5068827;28;20571;-80
2022/12/05 02:55:19;;;;;;;1999.90;674.25;;;7.20;99.90;;;;;;5069504;28;20624;-81
2022/12/05 02:57:51;;;;;;;1999.90;884.60;;;7.20;99.90;;;;;;5070861;28;20308;-79
2022/12/05 03:00:17;;;;;;;1999.90;539.33;;;8.30;99.90;;;;;;5036895;28;20087;-80
2022/12/05 03:02:43;;;;;;;1999.90;999.90;;;7.20;99.90;;;;;;5074472;28;20094;-80
2022/12/05 03:05:35;;;;;;;1999.90;452.20;;;7.40;99.90;;;;;;5074445;28;20041;-81
2022/12/05 03:08:03;;;;;;;1999.90;760.50;;;7.20;99.90;;;;;;5072884;28;20114;-82
2022/12/05 03:10:31;;;;;;;1999.90;999.90;;;7.40;99.90;;;;;;5057528;28;20097;-81
2022/12/05 03:13:03;;;;;;;1999.90;561.53;;;7.30;99.90;;;;;;5058244;28;20119;-81
2022/12/05 03:15:39;;;;;;;1999.90;999.90;;;8.30;99.90;;;;;;5075951;28;20045;-81
2022/12/05 03:18:14;;;;;;;1999.90;595.33;;;6.90;99.90;;;;;;5041088;28;20112;-81
2022/12/05 03:20:48;;;;;;;1999.90;999.90;;;7.30;99.90;;;;;;5074014;28;20429;-82
2022/12/05 03:23:24;;;;;;;1999.90;999.90;;;8.30;99.90;;;;;;5073528;28;20063;-81
2022/12/05 03:25:57;;;;;;;1999.90;999.90;;;8.70;99.90;;;;;;5073079;28;20051;-83
2022/12/05 03:28:52;;;;;;;1965.75;796.20;;;8.50;99.90;;;;;;5075387;28;20044;-82
2022/12/05 03:31:27;;;;;;;1999.90;539.05;;;7.30;99.90;;;;;;5056861;28;20084;-82
2022/12/05 03:33:58;;;;;;;1999.90;999.90;;;8.70;99.90;;;;;;5057035;28;20059;-82
2022/12/05 03:36:31;;;;;;;1999.90;566.95;;;7.40;99.90;;;;;;5074991;28;20464;-83
2022/12/05 03:39:04;;;;;;;1999.90;999.90;;;8.30;99.90;;;;;;5057584;28;20055;-83
2022/12/05 03:41:41;;;;;;;1999.90;673.50;;;7.40;99.90;;;;;;5056330;28;20043;-84
2022/12/05 03:44:16;;;;;;;1966.60;807.40;;;7.40;99.90;;;;;;5075052;28;20504;-83
2022/12/05 03:47:00;;;;;;;1999.90;669.20;;;7.40;99.90;;;;;;5075387;28;20055;-82
2022/12/05 03:49:58;;;;;;;1999.90;999.90;;;8.80;1.00;;;;;;5074907;28;20052;-83
2022/12/05 03:52:33;;;;;;;1999.90;999.90;;;7.50;1.00;;;;;;5072973;28;20056;-83
2022/12/05 03:55:03;;;;;;;1999.90;621.75;;;7.40;1.00;;;;;;5057887;28;20388;-83
2022/12/05 03:57:42;;;;;;;1999.90;999.90;;;7.40;1.00;;;;;;5075431;28;20277;-84
2022/12/05 04:00:13;;;;;;;1999.90;999.90;;;7.40;1.00;;;;;;5057001;28;20491;-83
2022/12/05 04:03:04;;;;;;;1999.90;999.90;;;6.40;1.00;;;;;;5073237;28;20052;-83
2022/12/05 04:05:39;;;;;;;1999.90;588.58;;;7.40;1.00;;;;;;5072076;28;20033;-83
2022/12/05 04:08:32;;;;;;;1999.90;999.90;;;7.40;1.00;;;;;;5072038;28;20045;-84
2022/12/05 04:11:03;;;;;;;1999.90;711.95;;;7.70;1.30;;;;;;5055037;28;20057;-84
2022/12/05 04:13:45;;;;;;;1999.90;999.90;;;7.40;1.00;;;;;;5050455;28;20047;-84
2022/12/05 04:19:17;;;;;;;1999.90;553.78;;;7.40;1.00;;;;;;5061830;28;20071;-84
2022/12/05 04:21:48;;;;;;;1999.90;999.90;;;7.70;1.00;;;;;;5074946;28;20052;-83
2022/12/05 04:27:30;;;;;;;1999.90;999.90;;;7.70;95.00;;;;;;5061213;28;20052;-84
2022/12/05 04:30:01;;;;;;;1999.90;999.90;;;7.40;92.30;;;;;;5073382;28;20067;-83
2022/12/05 04:32:34;;;;;;;1999.90;999.90;;;9.20;99.90;;;;;;5055194;28;20053;-85
2022/12/05 04:35:05;;;;;;;1999.90;999.90;;;7.40;99.90;;;;;;5053394;28;20053;-84
2022/12/05 04:37:35;;;;;;;1999.90;999.90;;;7.50;99.90;;;;;;5036085;28;20048;-84
2022/12/05 04:40:09;;;;;;;1999.90;999.90;;;7.50;99.90;;;;;;5037050;28;20059;-84
2022/12/05 04:42:37;;;;;;;1999.90;999.90;;;7.40;99.90;;;;;;5049353;28;20052;-85
2022/12/05 04:45:07;;;;;;;1999.90;999.90;;;9.20;99.90;;;;;;5074152;28;20081;-84
2022/12/05 04:47:39;;;;;;;1999.90;999.90;;;7.50;99.90;;;;;;5056313;28;20087;-84
2022/12/05 04:50:10;;;;;;;1999.90;326.38;;;7.50;99.90;;;;;;5055654;28;20056;-84
2022/12/05 04:52:38;;;;;;;1402.38;199.85;;;8.10;99.90;;;;;;5073754;28;20044;-85
2022/12/05 04:55:14;;;;;;;1999.90;875.90;;;8.40;99.90;;;;;;5072963;28;20382;-84
2022/12/05 04:57:39;;;;;;;1999.90;999.90;;;8.20;99.90;;;;;;5056264;28;20544;-84
2022/12/05 05:00:06;;;;;;;1999.90;999.90;;;7.50;99.90;;;;;;5073927;28;20139;-84
2022/12/05 05:02:46;;;;;;;1999.90;999.90;;;7.50;99.90;;;;;;5053970;28;20048;-83
2022/12/05 05:05:15;;;;;;;1635.88;581.88;;;7.50;99.90;;;;;;5062291;28;20131;-85
2022/12/05 05:07:47;;;;;;;1999.90;999.90;;;7.50;99.90;;;;;;5055038;28;20089;-84
2022/12/05 05:10:16;;;;;;;1999.90;999.90;;;9.10;99.90;;;;;;5071440;28;20041;-85
2022/12/05 05:12:42;;;;;;;1999.90;702.90;;;6.90;99.90;;;;;;5052851;28;20097;-84
2022/12/05 05:15:08;;;;;;;1999.90;999.90;;;7.50;99.90;;;;;;5035030;28;20048;-84
2022/12/05 05:17:33;;;;;;;1839.97;240.02;;;7.50;99.90;;;;;;5053509;28;20123;-83
2022/12/05 05:22:43;;;;;;;1999.90;999.90;;;8.00;99.90;;;;;;5070516;28;20076;-82
2022/12/05 05:25:09;;;;;;;1999.90;999.90;;;7.50;99.90;;;;;;5046760;28;20145;-84
2022/12/05 05:27:34;;;;;;;1999.90;630.28;;;9.40;99.90;;;;;;5037384;28;20044;-83
2022/12/05 05:30:00;;;;;;;1999.90;999.90;;;9.30;99.90;;;;;;5054558;28;20041;-83
2022/12/05 05:32:26;;;;;;;1999.90;999.90;;;9.30;99.90;;;;;;5070848;28;20059;-82
2022/12/05 05:34:51;;;;;;;1999.90;999.90;;;7.50;99.90;;;;;;5050478;28;20678;-81
2022/12/05 05:37:17;;;;;;;1999.90;999.90;;;9.00;99.90;;;;;;5069587;28;20476;-81
2022/12/05 05:39:42;;;;;;;1999.90;999.90;;;7.60;99.90;;;;;;5072723;28;20564;-80
2022/12/05 05:42:08;;;;;;;1999.90;999.90;;;7.50;99.90;;;;;;5068431;28;20480;-81
2022/12/05 05:44:34;;;;;;;1999.90;999.90;;;7.60;99.90;;;;;;5052305;28;20343;-81
2022/12/05 05:46:59;;;;;;;1274.88;540.65;;;7.60;99.90;;;;;;5071383;28;20120;-81
2022/12/05 05:49:25;;;;;;;1999.90;999.90;;;7.60;1.00;;;;;;5035537;28;20511;-82
2022/12/05 05:51:51;;;;;;;1999.90;999.90;;;7.50;99.90;;;;;;5072352;28;20040;-81
2022/12/05 05:54:16;;;;;;;1237.10;537.65;;;7.60;1.00;;;;;;5071105;28;20048;-80
2022/12/05 05:56:42;;;;;;;1840.53;794.33;;;7.60;1.00;;;;;;5035599;28;20047;-80
2022/12/05 05:59:08;;;;;;;1999.90;999.90;;;8.30;1.00;;;;;;5052061;28;20074;-80
2022/12/05 06:01:34;;;;;;;1999.90;999.90;;;8.70;1.00;;;;;;5051139;28;20358;-80
2022/12/05 06:03:59;;;;;;;1999.90;999.90;;;9.10;1.00;;;;;;5051439;28;20044;-80
2022/12/05 06:06:26;;;;;;;1999.90;999.90;;;8.90;1.00;;;;;;5055106;28;20058;-80
2022/12/05 06:08:53;;;;;;;1999.90;999.90;;;7.50;1.00;;;;;;5069247;28;21755;-80
2022/12/05 06:11:24;;;;;;;1999.90;999.90;;;7.10;1.00;;;;;;5067436;28;20072;-80
2022/12/05 06:13:50;;;;;;;1999.90;999.90;;;7.60;1.00;;;;;;5063612;28;20037;-81
2022/12/05 06:16:18;;;;;;;1999.90;999.90;;;7.60;1.00;;;;;;5069908;28;20085;-80
2022/12/05 06:18:44;;;;;;;1999.90;999.90;;;7.60;1.00;;;;;;5067105;28;20050;-80
2022/12/05 06:21:10;;;;;;;1999.90;999.90;;;7.60;1.00;;;;;;5068953;28;20048;-80
2022/12/05 06:23:37;;;;;;;1999.90;999.90;;;7.50;1.00;;;;;;5071236;28;20194;-80
2022/12/05 06:26:04;;;;;;;1999.90;999.90;;;7.60;1.00;;;;;;5054673;28;20049;-80
2022/12/05 06:28:31;;;;;;;1999.90;999.90;;;7.60;1.00;;;;;;5080460;28;20048;-81
2022/12/05 06:30:57;;;;;;;1999.90;999.90;;;8.90;1.00;;;;;;5078746;28;20408;-81
2022/12/05 06:33:23;;;;;;;1999.90;999.90;;;8.00;1.00;;;;;;5079332;28;20040;-82
2022/12/05 06:35:59;;;;;;;1999.90;999.90;;;9.10;1.00;;;;;;5059403;28;20067;-80
2022/12/05 06:38:25;;;;;;;1999.90;999.90;;;8.40;1.00;;;;;;5074802;28;20052;-80
2022/12/05 06:40:51;;;;;;;1999.90;999.90;;;7.60;1.00;;;;;;5054337;28;20048;-82
2022/12/05 06:43:16;;;;;;;1999.90;999.90;;;8.70;1.00;;;;;;5070388;28;20045;-80
2022/12/05 06:45:42;;;;;;;1999.90;999.90;;;7.60;70.70;;;;;;5072091;28;20052;-81
2022/12/05 06:48:07;;;;;;;1999.90;999.90;;;9.00;53.00;;;;;;5054537;28;20044;-80
2022/12/05 06:50:33;;;;;;;1999.90;999.90;;;6.20;90.70;;;;;;5071649;28;20049;-81
2022/12/05 06:52:59;;;;;;;1999.90;999.90;;;8.50;79.70;;;;;;5071378;28;20048;-81
2022/12/05 06:55:24;;;;;;;1726.10;577.28;;;7.60;73.30;;;;;;5054214;28;20048;-81
2022/12/05 06:57:50;;;;;;;1999.90;999.90;;;7.60;72.10;;;;;;5037799;28;20044;-81
2022/12/05 07:03:00;;;;;;;1999.90;999.90;;;7.60;99.90;;;;;;5051759;28;20520;-81
2022/12/05 07:05:26;;;;;;;1999.90;999.90;;;9.30;99.90;;;;;;5070971;28;20044;-81
2022/12/05 07:07:51;;;;;;;1999.90;999.90;;;7.90;99.90;;;;;;5053903;28;20049;-80
2022/12/05 07:10:17;;;;;;;1999.90;999.90;;;8.60;99.90;;;;;;5053116;28;20036;-80
2022/12/05 07:12:43;;;;;;;1999.90;999.90;;;7.60;99.90;;;;;;5053664;28;20040;-81
2022/12/05 07:15:09;;;;;;;1999.90;999.90;;;7.60;99.90;;;;;;5071780;28;20049;-80
2022/12/05 07:17:37;;;;;;;1999.90;999.90;;;7.60;99.90;;;;;;5050312;28;20044;-81
2022/12/05 07:20:05;;;;;;;1999.90;999.90;;;7.80;99.90;;;;;;5066997;28;20051;-81
2022/12/05 07:22:34;;;;;;;1999.90;999.90;;;7.70;99.90;;;;;;5070609;28;20053;-81
2022/12/05 07:25:00;;;;;;;1999.90;999.90;;;7.60;99.90;;;;;;5054161;28;20045;-81
2022/12/05 07:27:41;;;;;;;1999.90;999.90;;;7.70;99.90;;;;;;5053870;28;20048;-80
2022/12/05 07:30:07;;;;;;;1999.90;999.90;;;6.90;99.90;;;;;;5053236;28;20048;-82
2022/12/05 07:32:33;;;;;;;1999.90;999.90;;;7.70;99.90;;;;;;5035617;28;20052;-82
2022/12/05 07:34:59;;;;;;;1999.90;999.90;;;8.50;99.90;;;;;;5071362;28;20488;-81
2022/12/05 07:37:24;;;;;;;1999.90;999.90;;;9.40;99.90;;;;;;5071520;28;20131;-81
2022/12/05 07:39:51;;;;;;;1999.90;999.90;;;7.70;99.90;;;;;;5071303;28;20382;-81
2022/12/05 07:42:17;;;;;;;1999.90;745.13;;;9.60;99.90;;;;;;5069732;28;20115;-81
2022/12/05 07:44:43;;;;;;;1999.90;999.90;;;9.10;99.90;;;;;;5052417;28;20124;-81
2022/12/05 07:47:08;;;;;;;1999.90;999.90;;;7.60;99.90;;;;;;5053889;28;20044;-81
2022/12/05 07:49:34;;;;;;;1999.90;999.90;;;9.60;99.90;;;;;;5057211;28;20094;-81
2022/12/05 07:52:00;;;;;;;1999.90;999.90;;;8.80;99.90;;;;;;5057699;28;20048;-81
2022/12/05 07:54:26;;;;;;;1999.90;999.90;;;7.70;99.90;;;;;;5073485;28;20495;-80
2022/12/05 07:56:51;;;;;;;1999.90;600.65;;;8.00;99.90;;;;;;5075165;28;20512;-80
2022/12/05 07:59:17;;;;;;;1999.90;999.90;;;8.50;99.90;;;;;;5075755;28;20057;-80
2022/12/05 08:01:43;;;;;;;1999.90;999.90;;;8.20;99.90;;;;;;5040588;28;20523;-80
2022/12/05 08:04:08;;;;;;;1999.90;999.90;;;7.60;99.90;;;;;;5074051;28;20041;-81
2022/12/05 08:06:34;;;;;;;1999.90;999.90;;;7.60;99.90;;;;;;5075248;28;20053;-81
2022/12/05 08:09:00;;;;;;;1999.90;999.90;;;8.90;99.90;;;;;;5075471;28;20048;-80
2022/12/05 08:11:29;;;;;;;1999.90;999.90;;;7.60;99.90;;;;;;5075450;28;20143;-79
2022/12/05 08:13:56;;;;;;;1999.90;999.90;;;7.30;99.90;;;;;;5074226;28;20109;-81
2022/12/05 08:16:25;;;;;;;1999.90;999.90;;;7.70;99.90;;;;;;5074622;28;20044;-80
2022/12/05 08:19:06;;;;;;;1999.90;999.90;;;8.80;99.90;;;;;;5056689;28;20053;-80
2022/12/05 08:21:32;;;;;;;1999.90;999.90;;;8.10;99.90;;;;;;5073940;28;20041;-80
2022/12/05 08:23:58;;;;;;;1999.90;999.90;;;8.50;99.90;;;;;;5074334;28;20523;-80
2022/12/05 08:26:29;;;;;;;1999.90;999.90;;;8.10;99.90;;;;;;5040765;28;20087;-80
2022/12/05 08:29:04;;;;;;;1999.90;999.90;;;7.70;99.90;;;;;;5074525;28;20056;-80
2022/12/05 08:31:32;;;;;;;1999.90;999.90;;;7.70;99.90;;;;;;5056148;28;20552;-80
2022/12/05 08:33:59;;;;;;;1999.90;999.90;;;9.10;99.90;;;;;;5074526;28;20101;-80
2022/12/05 08:36:28;;;;;;;1999.90;999.90;;;7.60;99.90;;;;;;5057222;28;20048;-80
2022/12/05 08:38:59;;;;;;;1999.90;999.90;;;9.30;99.90;;;;;;5056061;28;20059;-80
2022/12/05 08:41:28;;;;;;;1999.90;999.90;;;8.90;99.90;;;;;;5074839;28;20045;-81
2022/12/05 08:43:56;;;;;;;1999.90;999.90;;;7.70;99.90;;;;;;5073950;28;20048;-81
2022/12/05 08:46:22;;;;;;;1999.90;999.90;;;7.70;99.90;;;;;;5055022;28;20110;-80
2022/12/05 08:48:48;;;;;;;1999.90;999.90;;;8.20;99.90;;;;;;5073902;28;20162;-80
2022/12/05 08:51:13;;;;;;;1743.30;585.70;;;8.00;99.90;;;;;;5040889;28;20045;-80
2022/12/05 08:53:40;;;;;;;1999.90;999.90;;;7.70;99.90;;;;;;5072123;28;20086;-81
2022/12/05 08:56:08;;;;;;;1999.90;999.90;;;9.30;99.90;;;;;;5074383;28;20066;-80
2022/12/05 08:58:33;;;;;;;;;;;7.70;99.90;;;;;;5073603;28;20044;-80
2022/12/05 09:01:11;;;;;;;1999.90;999.90;;;8.20;99.90;;;;;;5056888;28;19924;-80
2022/12/05 09:03:37;;;;;;;1999.90;999.90;;;7.80;99.90;;;;;;5068470;28;21690;-81
2022/12/05 09:06:14;;;;;;;1999.90;999.90;;;7.70;99.90;;;;;;5068179;28;20123;-80
2022/12/05 09:08:41;;;;;;;1999.90;999.90;;;7.70;99.90;;;;;;5073351;28;20092;-81
2022/12/05 09:11:19;;;;;;;1999.90;999.90;;;8.00;99.90;;;;;;5074102;28;20137;-80
2022/12/05 09:13:45;;;;;;;1999.90;999.90;;;7.40;99.90;;;;;;5072806;28;20048;-80
2022/12/05 09:16:22;;;;;;;1999.90;999.90;;;7.70;99.90;;;;;;5056221;28;20294;-80
2022/12/05 09:18:49;;;;;;;1999.90;999.90;;;6.70;99.90;;;;;;5073110;28;20057;-80
2022/12/05 09:21:23;;;;;;;1999.90;999.90;;;7.70;99.90;;;;;;5074343;28;20048;-80
2022/12/05 09:23:50;;;;;;;1999.90;999.90;;;7.70;99.90;;;;;;5071614;28;20501;-80
2022/12/05 09:26:19;;;;;;;1999.90;999.90;;;7.70;99.90;;;;;;5072999;28;20048;-80
2022/12/05 09:28:45;;;;;;;1999.90;999.90;;;8.70;99.90;;;;;;5055685;28;20431;-79
2022/12/05 09:31:16;;;;;;;1999.90;999.90;;;7.70;99.90;;;;;;5073869;28;20048;-81
2022/12/05 09:33:42;;;;;;;1999.90;999.90;;;8.70;99.90;;;;;;5071386;28;20489;-80
2022/12/05 09:36:18;;;;;;;1999.90;999.90;;;7.70;99.90;;;;;;5055957;28;20504;-80
2022/12/05 09:38:44;;;;;;;1999.90;999.90;;;7.70;99.90;;;;;;5054645;28;20044;-80
2022/12/05 09:44:22;;;;;;;1999.90;999.90;;;7.70;99.90;;;;;;5071956;28;20516;-79
2022/12/05 09:47:25;;;;;;;1999.90;999.90;;;9.70;99.90;;;;;;5071922;28;20059;-80
2022/12/05 09:50:01;;;;;;;1999.90;999.90;;;7.80;99.90;;;;;;5072155;28;20101;-80
2022/12/05 09:52:31;;;;;;;1999.90;999.90;;;7.80;99.90;;;;;;5054868;28;20056;-79
2022/12/05 09:55:09;;;;;;;1999.90;999.90;;;9.40;99.90;;;;;;5071076;28;20086;-80
2022/12/05 09:57:48;;;;;;;1999.90;999.90;;;7.80;99.90;;;;;;5054522;28;20048;-80
2022/12/05 10:00:14;;;;;;;;;;;7.70;99.90;;;;;;5055534;28;20095;-80
2022/12/05 10:03:18;;;;;;;1999.90;999.90;;;7.70;99.90;;;;;;5072023;28;19965;-80
2022/12/05 10:05:56;;;;;;;1999.90;999.90;;;7.70;99.90;;;;;;5070837;28;20089;-80
2022/12/05 10:08:30;;;;;;;;;;;7.80;99.90;;;;;;5054238;28;20048;-79
2022/12/05 10:11:01;;;;;;;1999.90;999.90;;;7.80;99.90;;;;;;5071564;28;20306;-79
2022/12/05 10:13:45;;;;;;;1999.90;999.90;;;8.40;99.90;;;;;;5072274;28;20500;-80
2022/12/05 10:16:17;;;;;;;1999.90;999.90;;;7.80;99.90;;;;;;5053816;28;20396;-80
2022/12/05 10:18:55;;;;;;;1999.90;999.90;;;8.40;99.90;;;;;;5054266;28;20052;-81
2022/12/05 10:21:32;;;;;;;1999.90;999.90;;;7.80;99.90;;;;;;5052423;28;20045;-82
2022/12/05 10:23:59;;;;;;;1999.90;999.90;;;7.80;99.90;;;;;;5051431;28;20849;-81
2022/12/05 10:26:48;;;;;;;1999.90;999.90;;;9.60;99.90;;;;;;5061483;28;20056;-80
2022/12/05 10:29:19;;;;;;;1999.90;999.90;;;8.60;99.90;;;;;;5054954;28;20056;-80
2022/12/05 10:31:48;;;;;;;1999.90;999.90;;;7.70;99.90;;;;;;5038126;28;20056;-81
2022/12/05 10:34:37;;;;;;;1999.90;999.90;;;7.80;99.90;;;;;;5055195;28;20048;-81
2022/12/05 10:37:23;;;;;;;1999.90;999.90;;;7.80;99.90;;;;;;5048391;28;20057;-81
2022/12/05 10:39:50;;;;;;;1999.90;999.90;;;7.80;99.90;;;;;;5054392;28;20045;-80
2022/12/05 10:42:28;;;;;;;1999.90;999.90;;;9.50;99.90;;;;;;5072024;28;20087;-81
2022/12/05 10:45:01;;;;;;;1999.90;999.90;;;7.90;99.90;;;;;;5072173;28;20040;-81
2022/12/05 10:47:28;;;;;;;1999.90;999.90;;;9.70;99.90;;;;;;5071402;28;20048;-80
2022/12/05 10:49:57;;;;;;;1999.90;999.90;;;7.80;99.90;;;;;;5037642;28;20447;-79
2022/12/05 10:52:23;;;;;;;1999.90;999.90;;;7.90;99.90;;;;;;5071708;28;20049;-80
2022/12/05 10:54:56;;;;;;;1999.90;999.90;;;9.10;99.90;;;;;;5053896;28;20146;-80
2022/12/05 10:57:29;;;;;;;1713.60;584.38;;;7.80;99.90;;;;;;5071236;28;20056;-80
2022/12/05 10:59:56;;;;;;;1999.90;999.90;;;8.80;99.90;;;;;;5072104;28;20485;-80
2022/12/05 11:02:25;;;;;;;1999.90;999.90;;;7.90;99.90;;;;;;5071435;28;20083;-80
2022/12/05 11:04:51;;;;;;;1999.90;999.90;;;8.30;99.90;;;;;;5071284;28;20048;-81
2022/12/05 11:07:29;;;;;;;1999.90;999.90;;;9.30;99.90;;;;;;5070599;28;20047;-81
2022/12/05 11:09:56;;;;;;;1999.90;999.90;;;9.90;99.90;;;;;;5034079;28;20084;-80
2022/12/05 11:12:26;;;;;;;1999.90;999.90;;;7.90;99.90;;;;;;5034425;28;20056;-80
2022/12/05 11:15:18;;;;;;;1999.90;999.90;;;10.40;99.90;;;;;;5034243;28;20048;-80
2022/12/05 11:17:45;;;;;;;1999.90;999.90;;;7.80;99.90;;;;;;5067588;28;20133;-81
2022/12/05 11:20:16;;;;;;;1999.90;999.90;;;7.90;99.90;;;;;;5036890;28;20501;-80
2022/12/05 11:22:43;;;;;;;1999.90;999.90;;;7.90;99.90;;;;;;5073258;28;20053;-81
2022/12/05 11:25:28;;;;;;;1999.90;999.90;;;8.00;99.90;;;;;;5075416;28;20048;-80
2022/12/05 11:27:55;;;;;;;1999.90;999.90;;;7.80;99.90;;;;;;5057273;28;20063;-80
2022/12/05 11:30:23;;;;;;;1999.90;999.90;;;8.00;99.90;;;;;;5074588;28;20048;-80
2022/12/05 11:32:50;;;;;;;;;;;8.00;99.90;;;;;;5056969;28;20130;-81
2022/12/05 11:35:15;;;;;;;1999.90;999.90;;;9.80;99.90;;;;;;5075004;28;20373;-80
2022/12/05 11:37:48;;;;;;;1999.90;999.90;;;9.70;99.90;;;;;;5057405;28;20056;-81
2022/12/05 11:40:25;;;;;;;1999.90;999.90;;;9.90;99.90;;;;;;5056059;28;20443;-80
2022/12/05 11:43:21;;;;;;;1999.90;999.90;;;7.90;99.90;;;;;;5074790;28;20124;-80
2022/12/05 11:46:24;;;;;;;1999.90;999.90;;;8.10;99.90;;;;;;5075560;28;20036;-80
2022/12/05 11:49:12;;;;;;;1999.90;999.90;;;10.70;99.90;;;;;;5072487;28;20505;-80
2022/12/05 11:51:39;;;;;;;1999.90;999.90;;;8.10;99.90;;;;;;5075205;28;20102;-79
2022/12/05 11:54:25;;;;;;;1999.90;999.90;;;8.90;99.90;;;;;;5074557;28;20040;-80
2022/12/05 11:56:58;;;;;;;1454.03;561.65;;;8.10;99.90;;;;;;5040600;28;20057;-82
2022/12/05 11:59:48;;;;;;;1606.05;576.58;;;8.10;99.90;;;;;;5074085;28;20082;-81
2022/12/05 12:02:38;;;;;;;1999.90;999.90;;;8.10;99.90;;;;;;5075204;28;20049;-80
2022/12/05 12:05:32;;;;;;;1999.90;999.90;;;8.10;99.90;;;;;;5056723;28;20044;-79
2022/12/05 12:08:05;;;;;;;1999.90;999.90;;;8.10;99.90;;;;;;5074219;28;20059;-80
2022/12/05 12:10:40;;;;;;;1999.90;999.90;;;8.10;99.90;;;;;;5056341;28;20059;-80
2022/12/05 12:13:42;;;;;;;1999.90;999.90;;;8.10;99.90;;;;;;5074562;28;20106;-80
2022/12/05 12:16:18;;;;;;;1999.90;999.90;;;7.60;99.90;;;;;;5055394;28;20086;-81
2022/12/05 12:18:52;;;;;;;1999.90;999.90;;;8.10;99.90;;;;;;5071785;28;20055;-79
2022/12/05 12:21:43;;;;;;;1999.90;999.90;;;8.10;99.90;;;;;;5054707;28;20139;-79
2022/12/05 12:24:41;;;;;;;1999.90;999.90;;;8.00;99.90;;;;;;5073058;28;20106;-79
2022/12/05 12:27:38;;;;;;;1999.90;999.90;;;8.10;99.90;;;;;;5033142;28;20056;-80
2022/12/05 12:30:10;;;;;;;1999.90;999.90;;;8.10;99.90;;;;;;5055086;28;20041;-79
2022/12/05 12:32:48;;;;;;;1999.90;999.90;;;8.10;99.90;;;;;;5052109;28;20455;-79
2022/12/05 12:35:29;;;;;;;1999.90;244.90;;;8.10;99.90;;;;;;5051525;28;20056;-80
2022/12/05 12:38:16;;;;;;;1999.90;999.90;;;8.30;99.90;;;;;;5072338;28;20040;-81
2022/12/05 12:40:50;;;;;;;1999.90;999.90;;;8.00;99.90;;;;;;5066372;28;20067;-81
2022/12/05 12:43:40;;;;;;;1999.90;999.90;;;8.10;99.90;;;;;;5071947;28;20052;-81
2022/12/05 12:46:09;;;;;;;1658.68;354.58;;;8.00;99.90;;;;;;5072976;28;20041;-80
2022/12/05 12:48:47;;;;;;;1999.90;584.97;;;8.10;99.90;;;;;;5053970;28;20040;-81
2022/12/05 12:51:13;;;;;;;1999.90;810.47;;;8.10;99.90;;;;;;5069394;28;20052;-80